createdAt,value
2018-04-19T00:02:07.290Z,45.57
2018-04-19T00:04:35.538Z,45.63
2018-04-19T00:07:03.616Z,46.09
2018-04-19T00:09:31.726Z,45.99
2018-04-19T00:11:59.851Z,46.39
2018-04-19T00:14:27.946Z,46.37
2018-04-19T00:16:56.049Z,46.80
2018-04-19T00:19:24.146Z,46.76
2018-04-19T00:21:52.245Z,46.69
2018-04-19T00:34:05.343Z,47.44
2018-04-19T00:36:34.770Z,47.41
2018-04-19T00:39:02.862Z,47.40
2018-04-19T00:41:30.960Z,47.49
2018-04-19T00:43:59.123Z,47.61
2018-04-19T00:46:27.515Z,47.61
2018-04-19T00:48:55.583Z,47.86
2018-04-19T00:51:23.680Z,48.03
2018-04-19T00:53:51.795Z,48.02
2018-04-19T00:56:19.891Z,48.20
2018-04-19T00:58:47.982Z,48.22
2018-04-19T01:01:16.352Z,48.28
2018-04-19T01:13:29.457Z,48.95
2018-04-19T01:15:57.601Z,49.24
2018-04-19T01:18:25.675Z,48.81
2018-04-19T01:20:53.803Z,48.73
2018-04-19T01:23:22.755Z,48.90
2018-04-19T01:25:50.876Z,48.68
2018-04-19T01:28:18.990Z,48.69
2018-04-19T01:30:47.095Z,48.47
2018-04-19T01:33:16.105Z,48.50
2018-04-19T01:35:56.027Z,48.66
2018-04-19T01:38:24.135Z,48.97
2018-04-19T01:40:52.266Z,49.18
2018-04-19T01:43:20.425Z,48.92
2018-04-19T01:45:48.521Z,48.53
2018-04-19T01:48:16.643Z,49.02
2018-04-19T01:50:44.744Z,48.84
2018-04-19T01:53:12.828Z,49.27
2018-04-19T01:55:40.919Z,49.50
2018-04-19T01:58:09.315Z,49.29
2018-04-19T02:00:37.411Z,49.42
2018-04-19T02:03:05.513Z,50.46
2018-04-19T02:05:36.087Z,50.00
2018-04-19T02:08:04.532Z,50.16
2018-04-19T02:10:32.604Z,50.51
2018-04-19T02:13:00.715Z,50.76
2018-04-19T02:15:28.803Z,50.41
2018-04-19T02:17:57.259Z,50.14
2018-04-19T02:20:25.362Z,50.14
2018-04-19T02:22:53.451Z,50.13
2018-04-19T02:25:21.906Z,50.25
2018-04-19T02:27:50.359Z,50.45
2018-04-19T02:30:18.478Z,50.34
2018-04-19T02:32:46.583Z,50.50
2018-04-19T02:35:14.676Z,50.36
2018-04-19T02:37:42.779Z,50.21
2018-04-19T02:40:10.871Z,50.16
2018-04-19T02:42:39.295Z,50.06
2018-04-19T02:45:07.391Z,50.13
2018-04-19T02:47:35.507Z,49.91
2018-04-19T02:50:03.624Z,50.08
2018-04-19T02:52:31.722Z,49.85
2018-04-19T02:54:59.816Z,50.20
2018-04-19T02:57:27.912Z,50.45
2018-04-19T02:59:56.012Z,50.14
2018-04-19T03:02:24.124Z,50.07
2018-04-19T03:04:52.247Z,50.16
2018-04-19T03:07:20.348Z,50.11
2018-04-19T03:09:48.457Z,50.12
2018-04-19T03:12:16.570Z,49.91
2018-04-19T03:14:44.659Z,50.06
2018-04-19T03:17:12.766Z,50.02
2018-04-19T03:19:40.850Z,50.18
2018-04-19T03:22:08.939Z,50.49
2018-04-19T03:24:37.055Z,50.13
2018-04-19T03:27:05.176Z,50.40
2018-04-19T03:29:33.251Z,50.33
2018-04-19T03:32:02.384Z,50.38
2018-04-19T03:34:30.471Z,50.63
2018-04-19T03:36:59.215Z,51.45
2018-04-19T03:39:27.327Z,51.19
2018-04-19T03:41:55.415Z,51.48
2018-04-19T03:44:23.503Z,51.99
2018-04-19T03:46:51.624Z,52.28
2018-04-19T03:49:19.711Z,52.36
2018-04-19T03:51:48.139Z,52.55
2018-04-19T03:54:16.563Z,52.00
2018-04-19T03:56:44.669Z,52.08
2018-04-19T03:59:12.749Z,51.94
2018-04-19T04:01:40.843Z,52.07
2018-04-19T04:04:08.927Z,52.27
2018-04-19T04:06:37.363Z,52.27
2018-04-19T04:09:05.483Z,52.34
2018-04-19T04:11:33.611Z,52.18
2018-04-19T04:14:01.731Z,52.19
2018-04-19T04:16:41.678Z,52.23
2018-04-19T04:19:21.679Z,52.37
2018-04-19T04:22:01.700Z,52.28
2018-04-19T04:24:29.803Z,52.79
2018-04-19T04:26:58.703Z,52.35
2018-04-19T04:29:26.789Z,52.36
2018-04-19T04:31:56.489Z,52.25
2018-04-19T04:34:26.277Z,52.24
2018-04-19T04:36:54.387Z,52.69
2018-04-19T04:52:27.735Z,52.60
2018-04-19T04:54:56.255Z,52.72
2018-04-19T04:57:24.345Z,52.55
2018-04-19T04:59:52.455Z,52.47
2018-04-19T05:02:20.552Z,52.39
2018-04-19T05:04:48.647Z,52.41
2018-04-19T05:07:17.383Z,52.36
2018-04-19T05:09:45.477Z,52.19
2018-04-19T05:12:13.621Z,51.89
2018-04-19T05:14:41.715Z,52.22
2018-04-19T05:17:09.811Z,52.04
2018-04-19T05:19:37.915Z,52.31
2018-04-19T05:22:06.611Z,52.90
2018-04-19T05:24:34.723Z,52.20
2018-04-19T05:27:02.899Z,51.88
2018-04-19T05:29:31.077Z,51.88
2018-04-19T05:31:59.167Z,52.11
2018-04-19T05:34:27.923Z,51.98
2018-04-19T05:36:56.664Z,52.13
2018-04-19T05:39:25.244Z,52.00
2018-04-19T05:41:53.726Z,52.52
2018-04-19T05:44:21.831Z,52.93
2018-04-19T05:46:49.925Z,52.52
2018-04-19T05:49:18.393Z,52.69
2018-04-19T05:51:46.464Z,52.32
2018-04-19T05:54:14.555Z,52.54
2018-04-19T06:06:28.561Z,52.36
2018-04-19T06:08:56.663Z,52.27
2018-04-19T06:11:24.779Z,51.82
2018-04-19T06:13:52.895Z,52.53
2018-04-19T06:16:21.013Z,51.63
2018-04-19T06:18:49.090Z,51.70
2018-04-19T06:21:17.207Z,51.69
2018-04-19T06:23:45.303Z,50.39
2018-04-19T06:26:13.406Z,51.18
2018-04-19T06:28:42.384Z,51.47
2018-04-19T06:31:10.481Z,51.13
2018-04-19T06:33:38.591Z,50.37
2018-04-19T06:36:06.741Z,50.46
2018-04-19T06:38:34.824Z,50.40
2018-04-19T06:41:02.932Z,49.67
2018-04-19T06:43:31.081Z,50.13
2018-04-19T06:45:59.195Z,49.42
2018-04-19T06:48:28.182Z,49.16
2018-04-19T06:50:56.280Z,48.75
2018-04-19T06:53:24.383Z,48.75
2018-04-19T06:55:52.570Z,48.67
2018-04-19T06:58:20.632Z,47.99
2018-04-19T07:00:48.759Z,46.91
2018-04-19T07:03:17.093Z,45.87
2018-04-19T07:05:45.188Z,43.07
2018-04-19T07:08:13.299Z,41.14
2018-04-19T07:10:41.421Z,40.44
2018-04-19T07:13:11.710Z,39.29
2018-04-19T07:15:39.819Z,38.69
2018-04-19T07:18:07.956Z,38.21
2018-04-19T07:20:36.053Z,37.92
2018-04-19T07:32:49.159Z,35.98
2018-04-19T07:35:17.251Z,34.79
2018-04-19T07:37:46.315Z,34.53
2018-04-19T07:40:14.694Z,33.95
2018-04-19T07:55:42.795Z,35.12
2018-04-19T07:58:10.895Z,36.35
2018-04-19T08:00:38.987Z,36.94
2018-04-19T08:03:07.112Z,37.58
2018-04-19T08:05:35.212Z,37.61
2018-04-19T08:08:03.312Z,37.52
2018-04-19T08:10:31.414Z,36.87
2018-04-19T08:12:59.758Z,37.60
2018-04-19T08:15:28.029Z,37.13
2018-04-19T08:17:56.372Z,36.71
2018-04-19T08:20:24.980Z,36.51
2018-04-19T08:22:53.094Z,35.89
2018-04-19T08:25:21.220Z,34.57
2018-04-19T08:27:49.614Z,34.31
2018-04-19T08:30:19.272Z,33.96
2018-04-19T08:32:47.395Z,33.46
2018-04-19T08:35:15.487Z,33.50
2018-04-19T08:37:44.232Z,33.50
2018-04-19T08:40:12.336Z,33.41
2018-04-19T08:42:40.439Z,33.72
2018-04-19T08:45:08.543Z,33.31
2018-04-19T08:47:36.646Z,33.84
2018-04-19T08:50:05.111Z,33.86
2018-04-19T08:52:33.307Z,34.30
2018-04-19T08:55:01.415Z,34.02
2018-04-19T08:57:29.519Z,34.33
2018-04-19T08:59:57.637Z,34.18
2018-04-19T09:02:25.719Z,34.17
2018-04-19T09:04:54.164Z,33.83
2018-04-19T09:07:22.313Z,33.90
2018-04-19T09:09:50.415Z,33.73
2018-04-19T09:12:19.381Z,32.65
2018-04-19T09:14:47.534Z,32.56
2018-04-19T09:17:15.620Z,32.45
2018-04-19T09:19:43.709Z,32.51
2018-04-19T09:22:12.168Z,32.45
2018-04-19T09:24:40.252Z,32.75
2018-04-19T09:27:09.026Z,33.20
2018-04-19T09:29:42.074Z,33.66
2018-04-19T09:32:10.307Z,33.17
2018-04-19T09:34:38.642Z,33.49
2018-04-19T09:37:12.404Z,33.11
2018-04-19T09:39:42.004Z,33.35
2018-04-19T09:42:10.181Z,33.58
2018-04-19T09:44:38.340Z,33.38
2018-04-19T09:47:06.514Z,33.52
2018-04-19T09:49:34.628Z,33.21
2018-04-19T09:52:03.038Z,33.88
2018-04-19T09:54:31.135Z,33.29
2018-04-19T09:57:00.055Z,33.79
2018-04-19T09:59:28.139Z,34.05
2018-04-19T10:02:01.803Z,33.64
2018-04-19T10:04:29.894Z,33.04
2018-04-19T10:06:57.998Z,33.09
2018-04-19T10:09:26.110Z,33.09
2018-04-19T10:11:54.198Z,33.24
2018-04-19T10:14:22.341Z,32.94
2018-04-19T10:16:50.432Z,33.38
2018-04-19T10:19:18.552Z,32.77
2018-04-19T10:21:46.630Z,33.25
2018-04-19T10:24:15.669Z,32.28
2018-04-19T10:26:44.195Z,31.29
2018-04-19T10:29:12.391Z,32.09
2018-04-19T10:31:40.771Z,31.94
2018-04-19T10:34:08.858Z,31.78
2018-04-19T10:36:36.963Z,30.29
2018-04-19T10:39:05.798Z,30.64
2018-04-19T10:41:33.880Z,30.87
2018-04-19T10:44:02.022Z,30.56
2018-04-19T10:46:30.214Z,30.58
2018-04-19T10:48:58.290Z,30.18
2018-04-19T10:51:26.374Z,29.55
2018-04-19T10:53:54.651Z,29.56
2018-04-19T10:56:22.739Z,28.34
2018-04-19T10:58:51.016Z,28.39
2018-04-19T11:01:19.454Z,27.67
2018-04-19T11:03:47.526Z,27.40
2018-04-19T11:06:15.621Z,27.64
2018-04-19T11:08:43.776Z,27.63
2018-04-19T11:11:12.706Z,27.23
2018-04-19T11:13:40.801Z,27.44
2018-04-19T11:16:09.400Z,26.25
2018-04-19T11:18:38.168Z,26.15
2018-04-19T11:21:06.245Z,26.23
2018-04-19T11:23:34.347Z,26.11
2018-04-19T11:26:02.828Z,26.51
2018-04-19T11:28:30.971Z,26.31
2018-04-19T11:30:59.179Z,26.53
2018-04-19T11:33:28.192Z,26.88
2018-04-19T11:35:57.048Z,26.66
2018-04-19T11:38:25.131Z,27.50
2018-04-19T11:40:53.319Z,27.07
2018-04-19T11:43:21.616Z,27.24
2018-04-19T11:45:49.708Z,27.46
2018-04-19T11:48:18.339Z,27.43
2018-04-19T11:50:47.239Z,28.06
2018-04-19T11:53:15.366Z,27.62
2018-04-19T11:55:43.463Z,27.98
2018-04-19T11:58:11.825Z,27.04
2018-04-19T12:00:39.916Z,28.13
2018-04-19T12:03:08.420Z,27.56
2018-04-19T12:05:36.534Z,27.52
2018-04-19T12:08:04.630Z,26.76
2018-04-19T12:10:32.718Z,26.91
2018-04-19T12:13:00.832Z,27.34
2018-04-19T12:15:28.929Z,26.72
2018-04-19T12:17:57.026Z,26.69
2018-04-19T12:20:25.386Z,26.80
2018-04-19T12:22:53.489Z,26.71
2018-04-19T12:38:26.606Z,27.23
2018-04-19T12:40:54.760Z,27.76
2018-04-19T12:43:22.855Z,27.55
2018-04-19T12:45:51.971Z,27.08
2018-04-19T12:48:20.048Z,27.05
2018-04-19T13:00:38.156Z,28.37
2018-04-19T13:03:06.299Z,28.06
2018-04-19T13:05:35.298Z,28.45
2018-04-19T13:08:03.469Z,28.26
2018-04-19T13:10:32.403Z,28.86
2018-04-19T13:13:00.543Z,28.52
2018-04-19T13:15:28.835Z,28.58
2018-04-19T13:17:56.938Z,28.20
2018-04-19T13:20:25.059Z,27.94
2018-04-19T13:22:53.350Z,28.21
2018-04-19T13:25:21.456Z,28.45
2018-04-19T13:27:50.130Z,28.07
2018-04-19T13:30:18.242Z,28.71
2018-04-19T13:32:46.357Z,28.03
2018-04-19T13:35:15.330Z,28.17
2018-04-19T13:37:43.437Z,28.47
2018-04-19T13:40:11.551Z,28.01
2018-04-19T13:42:39.738Z,27.60
2018-04-19T13:45:07.848Z,27.38
2018-04-19T13:47:37.416Z,27.54
2018-04-19T13:50:05.503Z,27.59
2018-04-19T13:52:33.655Z,27.43
2018-04-19T13:55:01.907Z,27.12
2018-04-19T13:57:30.206Z,26.86
2018-04-19T13:59:58.420Z,27.09
2018-04-19T14:02:28.342Z,28.14
2018-04-19T14:04:56.437Z,28.56
2018-04-19T14:07:24.557Z,28.92
2018-04-19T14:09:53.272Z,28.82
2018-04-19T14:12:21.719Z,29.46
2018-04-19T14:14:55.353Z,29.28
2018-04-19T14:17:23.817Z,28.90
2018-04-19T14:19:52.680Z,28.65
2018-04-19T14:22:21.120Z,28.44
2018-04-19T14:24:49.171Z,28.43
2018-04-19T14:27:17.286Z,28.46
2018-04-19T14:29:45.754Z,28.00
2018-04-19T14:32:13.895Z,28.31
2018-04-19T14:34:42.004Z,28.60
2018-04-19T14:37:10.203Z,29.45
2018-04-19T14:39:38.320Z,29.51
2018-04-19T14:42:06.395Z,28.30
2018-04-19T14:44:34.501Z,27.88
2018-04-19T14:47:02.588Z,28.00
2018-04-19T14:49:30.740Z,27.24
2018-04-19T14:51:58.833Z,27.52
2018-04-19T14:54:26.921Z,28.20
2018-04-19T14:56:55.244Z,27.51
2018-04-19T14:59:23.332Z,27.70
2018-04-19T15:01:52.427Z,27.53
2018-04-19T15:04:20.488Z,28.01
2018-04-19T15:06:48.568Z,28.12
2018-04-19T15:09:16.712Z,27.89
2018-04-19T15:11:44.764Z,27.71
2018-04-19T15:14:12.835Z,26.94
2018-04-19T15:16:41.233Z,26.33
2018-04-19T15:19:09.300Z,24.93
2018-04-19T15:21:37.519Z,25.28
2018-04-19T15:24:05.597Z,24.69
2018-04-19T15:26:38.676Z,23.80
2018-04-19T15:29:06.755Z,24.25
2018-04-19T15:31:34.831Z,24.13
2018-04-19T15:34:02.987Z,23.38
2018-04-19T15:36:32.715Z,23.55
2018-04-19T15:39:01.132Z,23.97
2018-04-19T15:41:29.727Z,23.92
2018-04-19T15:43:58.185Z,24.14
2018-04-19T15:46:26.248Z,24.08
2018-04-19T15:48:56.238Z,24.22
2018-04-19T15:51:25.271Z,24.12
2018-04-19T15:53:53.320Z,24.10
2018-04-19T15:56:21.754Z,24.43
2018-04-19T15:58:49.860Z,24.44
2018-04-19T16:01:17.903Z,24.33
2018-04-19T16:03:45.983Z,24.45
2018-04-19T16:06:19.633Z,24.92
2018-04-19T16:08:53.190Z,29.32
2018-04-19T16:11:21.337Z,30.60
2018-04-19T16:13:49.411Z,31.18
2018-04-19T16:16:17.497Z,30.84
2018-04-19T16:18:45.604Z,30.73
2018-04-19T16:21:14.444Z,29.84
2018-04-19T16:23:42.550Z,29.70
2018-04-19T16:26:11.623Z,30.09
2018-04-19T16:28:39.717Z,30.46
2018-04-19T16:31:07.815Z,30.79
2018-04-19T16:33:35.931Z,30.65
2018-04-19T16:36:09.447Z,30.75
2018-04-19T16:38:38.404Z,30.56
2018-04-19T16:41:06.538Z,30.60
2018-04-19T16:43:35.078Z,30.60
2018-04-19T16:46:03.179Z,31.12
2018-04-19T16:48:31.600Z,30.94
2018-04-19T16:50:59.722Z,30.91
2018-04-19T16:53:27.815Z,31.25
2018-04-19T16:55:55.898Z,31.14
2018-04-19T16:58:23.986Z,31.05
2018-04-19T17:00:52.121Z,31.02
2018-04-19T17:03:20.239Z,30.95
2018-04-19T17:05:48.328Z,30.90
2018-04-19T17:08:16.468Z,31.00
2018-04-19T17:10:44.584Z,30.84
2018-04-19T17:13:12.741Z,30.85
2018-04-19T17:15:40.830Z,31.12
2018-04-19T17:18:08.974Z,31.05
2018-04-19T17:20:37.127Z,30.51
2018-04-19T17:23:05.199Z,30.82
2018-04-19T17:35:19.105Z,30.83
2018-04-19T17:37:47.228Z,30.90
2018-04-19T17:40:15.368Z,31.28
2018-04-19T17:42:45.091Z,31.27
2018-04-19T17:45:13.536Z,31.62
2018-04-19T17:47:41.785Z,31.85
2018-04-19T17:50:09.880Z,32.55
2018-04-19T17:52:39.304Z,33.19
2018-04-19T17:55:12.933Z,33.55
2018-04-19T17:57:41.035Z,33.58
2018-04-19T18:00:09.151Z,33.77
2018-04-19T18:02:37.244Z,33.63
2018-04-19T18:05:10.292Z,33.93
2018-04-19T18:07:38.654Z,33.54
2018-04-19T18:10:06.747Z,33.36
2018-04-19T18:12:34.875Z,33.06
2018-04-19T18:15:02.993Z,33.27
2018-04-19T18:20:06.691Z,33.64
2018-04-19T18:22:34.784Z,33.65
2018-04-19T18:25:04.165Z,33.85
2018-04-19T18:27:32.643Z,33.82
2018-04-19T18:30:00.712Z,33.38
2018-04-19T18:32:28.807Z,33.73
2018-04-19T18:34:56.924Z,33.89
2018-04-19T18:37:25.017Z,33.53
2018-04-19T18:39:53.120Z,33.87
2018-04-19T18:42:21.948Z,33.15
2018-04-19T18:44:50.851Z,33.31
2018-04-19T18:47:18.951Z,33.50
2018-04-19T18:49:47.056Z,33.48
2018-04-19T18:52:15.182Z,33.27
2018-04-19T18:54:43.273Z,33.29
2018-04-19T18:57:11.718Z,33.46
2018-04-19T18:59:39.868Z,33.43
2018-04-19T19:02:08.024Z,33.68
2018-04-19T19:04:36.871Z,33.94
2018-04-19T19:07:04.948Z,34.09
2018-04-19T19:09:33.059Z,34.25
2018-04-19T19:12:01.170Z,34.19
2018-04-19T19:14:29.253Z,34.54
2018-04-19T19:16:57.357Z,34.37
2018-04-19T19:19:37.257Z,34.59
2018-04-19T19:22:05.373Z,34.73
2018-04-19T19:24:34.214Z,35.18
2018-04-19T19:27:02.510Z,35.38
2018-04-19T19:29:30.578Z,35.26
2018-04-19T19:31:58.677Z,35.23
2018-04-19T19:34:26.782Z,35.08
2018-04-19T19:36:54.879Z,35.37
2018-04-19T19:39:24.123Z,35.26
2018-04-19T19:41:52.241Z,35.32
2018-04-19T19:44:20.325Z,35.27
2018-04-19T19:46:48.406Z,35.20
2018-04-19T19:49:17.501Z,35.46
2018-04-19T19:51:50.847Z,35.66
2018-04-19T19:54:19.023Z,35.47
2018-04-19T19:56:47.449Z,35.54
2018-04-19T19:59:15.512Z,35.34
2018-04-19T20:01:43.877Z,35.85
2018-04-19T20:04:12.363Z,35.60
2018-04-19T20:06:40.439Z,35.70
2018-04-19T20:09:09.207Z,35.73
2018-04-19T20:11:37.296Z,35.91
2018-04-19T20:14:06.660Z,35.82
2018-04-19T20:16:34.724Z,35.88
2018-04-19T20:19:02.840Z,35.54
2018-04-19T20:21:30.963Z,35.57
2018-04-19T20:23:59.108Z,35.75
2018-04-19T20:26:28.569Z,35.99
2018-04-19T20:28:56.674Z,36.00
2018-04-19T20:31:24.760Z,36.07
2018-04-19T20:33:53.003Z,36.11
2018-04-19T20:36:21.923Z,36.14
2018-04-19T20:38:50.024Z,36.15
2018-04-19T20:41:18.152Z,36.29
2018-04-19T20:43:46.963Z,36.16
2018-04-19T20:46:15.771Z,36.06
2018-04-19T20:48:43.878Z,36.31
2018-04-19T21:04:12.020Z,36.03
2018-04-19T21:06:40.114Z,36.42
2018-04-19T21:09:08.999Z,36.50
2018-04-19T21:11:37.119Z,36.59
2018-04-19T21:14:05.213Z,36.73
2018-04-19T21:16:33.300Z,36.90
2018-04-19T21:19:01.410Z,36.96
2018-04-19T21:21:29.654Z,36.93
2018-04-19T21:23:57.757Z,36.97
2018-04-19T21:26:25.831Z,36.75
2018-04-19T21:28:53.919Z,37.00
2018-04-19T21:31:22.766Z,36.86
2018-04-19T21:33:50.855Z,36.82
2018-04-19T21:36:19.714Z,37.16
2018-04-19T21:38:47.826Z,36.88
2018-04-19T21:41:15.948Z,36.91
2018-04-19T21:56:46.120Z,36.54
2018-04-19T21:59:14.212Z,36.73
2018-04-19T22:14:42.848Z,37.88
2018-04-19T22:17:10.948Z,37.69
2018-04-19T22:29:29.373Z,36.93
2018-04-19T22:31:57.448Z,36.68
2018-04-19T22:34:25.547Z,36.76
2018-04-19T22:36:53.672Z,36.92
2018-04-19T22:39:21.910Z,36.64
2018-04-19T22:41:50.008Z,36.66
2018-04-19T22:44:18.146Z,36.82
2018-04-19T22:46:46.262Z,37.04
2018-04-19T22:49:14.367Z,37.35
2018-04-19T22:51:43.519Z,37.63
2018-04-19T22:54:11.619Z,37.60
2018-04-19T22:56:39.702Z,38.08
2018-04-19T22:59:13.446Z,38.23
2018-04-19T23:01:47.096Z,37.98
2018-04-19T23:04:15.263Z,37.68
2018-04-19T23:06:43.356Z,37.82
2018-04-19T23:09:11.507Z,37.76
2018-04-19T23:11:39.632Z,37.49
2018-04-19T23:14:08.399Z,37.73
2018-04-19T23:16:37.298Z,37.75
2018-04-19T23:19:05.447Z,37.58
2018-04-19T23:21:33.626Z,37.97
2018-04-19T23:24:01.803Z,38.19
2018-04-19T23:26:29.902Z,38.48
2018-04-19T23:28:59.142Z,38.44
2018-04-19T23:31:27.258Z,38.41
2018-04-19T23:33:56.238Z,38.80
2018-04-19T23:36:25.142Z,38.85
2018-04-19T23:38:53.250Z,39.18
2018-04-19T23:41:21.975Z,38.87
2018-04-19T23:43:50.092Z,38.87
2018-04-19T23:46:18.482Z,39.04
2018-04-19T23:48:46.576Z,39.03
2018-04-19T23:51:14.673Z,39.16
2018-04-19T23:53:42.770Z,39.18
2018-04-19T23:56:10.893Z,39.25
2018-04-19T23:58:39.076Z,39.58
